»·PEaware :: N542T KONT-KPMD

N542T :: KONT-KPMD

FLIGHT INFORMATION

Flight Status: Arrived
Operator: Privately registered:
United States
More flights under this callsign
Pilot: Erik H. (34311)
Aircraft: BEECH AIRCRAFT BONANZA
(BE36)
More flights by this aircraft type
Origin: KONT Ontario Intl
United States
Destination: KPMD Palmdale AF Plant 42
United States
More flights between these airports :: More routes between these airports
Route: V186 DARTS V459 KIMMO V518 PMD
File this flight plan on PilotEdge
Remarks:
Altitude:
(Current/Filed)
8,000ft
Speed:
(Current/Filed)
160kts
Departed: 07-Mar-23 05:45 PM
Arrived: 07-Mar-23 06:31 PM
Distance/Time
Traveled:
42nm/0:46
Distance/Time
To Go:
Arrived

Flight Plot

Page will automatically refresh every two minutes.

Flight plan parsing failed; only flown route is shown


Map Options




Map Legend


Flown Route
Filed Route
Departure Airport
Arrival Airport
Navaid (VOR, NDB)
Fix

Horizontal Profiles

Position Reports

Time Latitude Longitude Heading Altitude Ground
Speed
07-Mar-23 17:29 34.052993 -117.604176 269 914ft 0kts
07-Mar-23 17:30 34.052993 -117.604176 269 914ft 0kts
07-Mar-23 17:31 34.052993 -117.604176 269 914ft 0kts
07-Mar-23 17:32 34.052993 -117.604176 269 914ft 0kts
07-Mar-23 17:33 34.052993 -117.604176 269 914ft 0kts
07-Mar-23 17:34 34.052993 -117.604176 269 914ft 0kts
07-Mar-23 17:35 34.052993 -117.604176 269 914ft 0kts
07-Mar-23 17:36 34.052993 -117.604176 269 914ft 0kts
07-Mar-23 17:37 34.052993 -117.604176 269 914ft 0kts
07-Mar-23 17:38 34.052993 -117.604176 269 914ft 0kts
07-Mar-23 17:39 34.053822 -117.602022 86 914ft 26kts
07-Mar-23 17:40 34.053813 -117.589952 88 913ft 33kts
07-Mar-23 17:41 34.054092 -117.582532 10 918ft 0kts
07-Mar-23 17:42 34.054092 -117.582532 10 918ft 0kts
07-Mar-23 17:43 34.054630 -117.582559 340 920ft 14kts
07-Mar-23 17:44 34.055750 -117.597753 272 1309ft 92kts
07-Mar-23 17:45 34.054815 -117.632030 263 2750ft 112kts
07-Mar-23 17:46 34.052992 -117.671383 263 4151ft 123kts
07-Mar-23 17:47 34.050991 -117.713768 263 5556ft 130kts
07-Mar-23 17:48 34.048718 -117.757831 263 6953ft 133kts
07-Mar-23 17:49 34.046570 -117.802073 263 8352ft 131kts
07-Mar-23 17:50 34.044066 -117.849217 263 9005ft 164kts
07-Mar-23 17:51 34.045306 -117.906820 281 8990ft 174kts
07-Mar-23 17:52 34.061104 -117.961420 286 8996ft 171kts
07-Mar-23 17:53 34.077640 -118.014998 286 8994ft 170kts
07-Mar-23 17:54 34.094015 -118.068306 286 8991ft 169kts
07-Mar-23 17:55 34.110416 -118.121884 285 8995ft 171kts
07-Mar-23 17:56 34.127000 -118.176127 286 8995ft 173kts
07-Mar-23 17:57 34.143692 -118.230812 286 8992ft 173kts
07-Mar-23 17:58 34.169519 -118.277996 330 8982ft 184kts
07-Mar-23 17:59 34.215728 -118.304822 327 8992ft 183kts
07-Mar-23 18:00 34.261900 -118.331647 328 8990ft 183kts
07-Mar-23 18:01 34.307931 -118.358395 327 8983ft 182kts
07-Mar-23 18:02 34.353996 -118.385216 327 8978ft 183kts
07-Mar-23 18:03 34.401150 -118.408578 353 8955ft 191kts
07-Mar-23 18:04 34.442584 -118.366498 49 8970ft 206kts
07-Mar-23 18:05 34.477603 -118.310918 50 9025ft 204kts
07-Mar-23 18:06 34.512326 -118.255510 49 9009ft 207kts
07-Mar-23 18:07 34.544955 -118.202771 50 8526ft 183kts
07-Mar-23 18:08 34.576087 -118.153012 50 7606ft 188kts
07-Mar-23 18:09 34.608779 -118.105184 47 7018ft 166kts
07-Mar-23 18:10 34.635368 -118.059854 82 6987ft 167kts
07-Mar-23 18:11 34.636221 -118.007397 85 6994ft 126kts
07-Mar-23 18:12 34.638817 -117.966585 85 6612ft 116kts
07-Mar-23 18:13 34.641313 -117.929676 85 6520ft 110kts
07-Mar-23 18:14 34.643476 -117.891811 86 6449ft 119kts
07-Mar-23 18:15 34.646308 -117.849662 84 5965ft 128kts
07-Mar-23 18:16 34.640567 -117.809655 131 5429ft 122kts
07-Mar-23 18:17 34.619851 -117.777783 130 5010ft 114kts
07-Mar-23 18:18 34.629409 -117.755341 323 5039ft 98kts
07-Mar-23 18:19 34.647555 -117.777975 274 5032ft 88kts
07-Mar-23 18:20 34.646697 -117.807754 261 5026ft 88kts
07-Mar-23 18:21 34.645007 -117.837807 261 5021ft 89kts
07-Mar-23 18:22 34.643415 -117.867918 262 5022ft 89kts
07-Mar-23 18:23 34.641738 -117.901093 263 4597ft 103kts
07-Mar-23 18:24 34.640081 -117.932810 260 4530ft 87kts
07-Mar-23 18:25 34.638554 -117.962467 262 4370ft 86kts
07-Mar-23 18:26 34.637096 -117.990919 263 3865ft 83kts
07-Mar-23 18:27 34.635616 -118.018262 261 3451ft 81kts
07-Mar-23 18:28 34.634144 -118.045613 260 3074ft 77kts
07-Mar-23 18:29 34.632840 -118.073109 259 2529ft 80kts
07-Mar-23 18:30 34.633415 -118.082779 353 2499ft 21kts
07-Mar-23 18:31 34.635025 -118.085174 278 2497ft 1kts
07-Mar-23 18:32 34.637037 -118.086768 192 2492ft 0kts
07-Mar-23 18:33 34.637037 -118.086768 192 2492ft 0kts
07-Mar-23 18:34 34.637037 -118.086768 192 2492ft 0kts

Navigation Log

Ident Type
Flight plan parsing failed, navigation log unavailable